createdAt,value
2022-08-28T00:02:21.060Z,17.03
2022-08-28T00:04:50.230Z,17.01
2022-08-28T00:07:19.351Z,16.98
2022-08-28T00:09:49.186Z,16.97
2022-08-28T00:12:17.945Z,16.97
2022-08-28T00:14:46.496Z,16.96
2022-08-28T00:17:14.990Z,16.97
2022-08-28T00:19:43.597Z,16.97
2022-08-28T00:22:12.182Z,16.98
2022-08-28T00:24:42.816Z,16.99
2022-08-28T00:27:30.449Z,16.98
2022-08-28T00:29:59.209Z,16.98
2022-08-28T00:32:28.361Z,16.96
2022-08-28T00:34:56.847Z,16.91
2022-08-28T00:37:25.321Z,16.93
2022-08-28T00:39:54.767Z,16.98
2022-08-28T00:42:24.716Z,16.92
2022-08-28T00:44:53.182Z,16.92
2022-08-28T00:47:26.458Z,16.89
2022-08-28T00:49:57.289Z,16.84
2022-08-28T00:52:26.917Z,16.77
2022-08-28T00:54:59.940Z,16.79
2022-08-28T00:57:33.317Z,16.82
2022-08-28T01:00:02.200Z,16.76
2022-08-28T01:02:31.844Z,16.78
2022-08-28T01:05:00.403Z,16.67
2022-08-28T01:07:29.141Z,16.66
2022-08-28T01:09:59.313Z,16.65
2022-08-28T01:12:33.725Z,16.63
2022-08-28T01:15:04.762Z,16.60
2022-08-28T01:17:35.965Z,16.51
2022-08-28T01:20:10.284Z,16.55
2022-08-28T01:22:42.101Z,16.44
2022-08-28T01:25:15.204Z,16.41
2022-08-28T01:27:43.984Z,16.41
2022-08-28T01:30:15.689Z,16.40
2022-08-28T01:32:49.474Z,16.35
2022-08-28T01:35:21.106Z,16.24
2022-08-28T01:37:49.698Z,16.22
2022-08-28T01:40:24.870Z,16.19
2022-08-28T01:42:55.098Z,16.16
2022-08-28T01:45:26.217Z,16.06
2022-08-28T01:47:57.375Z,16.12
2022-08-28T01:50:25.863Z,16.14
2022-08-28T01:52:54.320Z,16.01
2022-08-28T01:55:24.271Z,15.93
2022-08-28T01:57:56.160Z,15.91
2022-08-28T02:00:27.554Z,15.88
2022-08-28T02:02:58.253Z,15.83
2022-08-28T02:05:29.813Z,15.77
2022-08-28T02:07:58.811Z,15.72
2022-08-28T02:10:30.444Z,15.65
2022-08-28T02:12:59.841Z,15.64
2022-08-28T02:15:30.596Z,15.61
2022-08-28T02:17:59.853Z,15.54
2022-08-28T02:20:30.506Z,15.49
2022-08-28T02:22:59.446Z,15.42
2022-08-28T02:25:30.824Z,15.36
2022-08-28T02:27:59.590Z,15.34
2022-08-28T02:30:28.633Z,15.32
2022-08-28T02:32:57.869Z,15.34
2022-08-28T02:35:26.435Z,15.32
2022-08-28T02:37:55.592Z,15.25
2022-08-28T02:40:25.600Z,15.19
2022-08-28T02:42:55.591Z,15.15
2022-08-28T02:45:24.113Z,15.07
2022-08-28T02:47:53.933Z,15.03
2022-08-28T02:50:22.756Z,15.02
2022-08-28T02:52:51.634Z,15.02
2022-08-28T02:55:21.243Z,15.01
2022-08-28T02:57:50.299Z,15.01
2022-08-28T03:00:23.508Z,15.09
2022-08-28T03:02:53.356Z,15.07
2022-08-28T03:05:25.014Z,15.06
2022-08-28T03:07:54.412Z,15.06
2022-08-28T03:10:23.045Z,15.12
2022-08-28T03:12:51.709Z,15.09
2022-08-28T03:15:22.233Z,15.11
2022-08-28T03:17:51.235Z,15.12
2022-08-28T03:20:20.069Z,15.14
2022-08-28T03:23:06.491Z,15.04
2022-08-28T03:25:35.025Z,15.05
2022-08-28T03:28:03.911Z,15.00
2022-08-28T03:30:33.937Z,15.08
2022-08-28T03:33:02.997Z,14.99
2022-08-28T03:35:31.755Z,15.00
2022-08-28T03:38:00.393Z,14.99
2022-08-28T03:40:29.075Z,14.97
2022-08-28T03:42:57.637Z,14.95
2022-08-28T03:45:27.946Z,14.90
2022-08-28T03:47:57.893Z,14.82
2022-08-28T03:50:26.409Z,14.78
2022-08-28T03:52:57.471Z,14.77
2022-08-28T03:55:26.759Z,14.78
2022-08-28T03:57:55.353Z,14.73
2022-08-28T04:00:24.057Z,14.70
2022-08-28T04:02:53.514Z,14.70
2022-08-28T04:05:23.442Z,14.67
2022-08-28T04:07:53.850Z,14.65
2022-08-28T04:10:22.412Z,14.65
2022-08-28T04:12:50.984Z,14.62
2022-08-28T04:15:20.277Z,14.67
2022-08-28T04:17:49.497Z,14.68
2022-08-28T04:20:18.015Z,14.71
2022-08-28T04:22:48.015Z,14.66
2022-08-28T04:25:16.570Z,14.67
2022-08-28T04:27:45.112Z,14.69
2022-08-28T04:30:14.480Z,14.77
2022-08-28T04:32:43.629Z,14.74
2022-08-28T04:35:14.628Z,14.74
2022-08-28T04:37:44.194Z,14.73
2022-08-28T04:40:15.847Z,14.69
2022-08-28T04:42:45.262Z,14.70
2022-08-28T04:45:13.826Z,14.70
2022-08-28T04:47:43.318Z,14.68
2022-08-28T04:50:12.494Z,14.65
2022-08-28T04:52:43.119Z,14.68
2022-08-28T04:55:11.727Z,14.61
2022-08-28T04:57:41.645Z,14.58
2022-08-28T05:00:12.350Z,14.57
2022-08-28T05:02:42.964Z,14.63
2022-08-28T05:05:11.817Z,14.63
2022-08-28T05:07:40.361Z,14.62
2022-08-28T05:10:13.541Z,14.60
2022-08-28T05:12:43.905Z,14.53
2022-08-28T05:15:13.007Z,14.60
2022-08-28T05:17:41.665Z,14.56
2022-08-28T05:20:10.991Z,14.63
2022-08-28T05:22:39.487Z,14.63
2022-08-28T05:25:08.766Z,14.60
2022-08-28T05:27:38.259Z,14.63
2022-08-28T05:30:10.609Z,14.68
2022-08-28T05:32:39.493Z,14.59
2022-08-28T05:35:08.678Z,14.57
2022-08-28T05:37:37.497Z,14.64
2022-08-28T05:40:06.950Z,14.69
2022-08-28T05:42:38.870Z,14.73
2022-08-28T05:45:10.383Z,14.80
2022-08-28T05:47:38.916Z,14.85
2022-08-28T05:50:08.919Z,14.90
2022-08-28T05:52:37.575Z,14.92
2022-08-28T05:55:08.424Z,15.03
2022-08-28T05:57:37.186Z,15.01
2022-08-28T06:00:09.792Z,15.07
2022-08-28T06:02:39.788Z,15.15
2022-08-28T06:05:09.118Z,15.16
2022-08-28T06:07:42.005Z,15.10
2022-08-28T06:10:10.958Z,15.09
2022-08-28T06:12:39.465Z,15.19
2022-08-28T06:15:09.925Z,15.21
2022-08-28T06:17:40.272Z,15.34
2022-08-28T06:20:10.717Z,15.37
2022-08-28T06:22:39.237Z,15.61
2022-08-28T06:25:09.303Z,15.92
2022-08-28T06:27:39.249Z,16.10
2022-08-28T06:30:09.142Z,16.03
2022-08-28T06:32:39.050Z,16.01
2022-08-28T06:35:08.027Z,15.98
2022-08-28T06:37:38.480Z,16.15
2022-08-28T06:40:08.110Z,16.31
2022-08-28T06:42:36.940Z,16.07
2022-08-28T06:45:06.276Z,16.36
2022-08-28T06:47:34.897Z,16.60
2022-08-28T06:50:05.399Z,16.68
2022-08-28T06:52:35.021Z,16.91
2022-08-28T06:55:07.032Z,17.60
2022-08-28T06:57:36.286Z,17.93
2022-08-28T07:00:06.803Z,18.09
2022-08-28T07:02:35.648Z,18.37
2022-08-28T07:05:06.731Z,18.46
2022-08-28T07:07:35.451Z,18.46
2022-08-28T07:10:04.418Z,18.59
2022-08-28T07:12:33.505Z,18.94
2022-08-28T07:15:03.738Z,19.01
2022-08-28T07:17:32.702Z,18.69
2022-08-28T07:20:01.232Z,18.52
2022-08-28T07:22:32.468Z,19.11
2022-08-28T07:25:01.197Z,19.42
2022-08-28T07:27:29.814Z,19.59
2022-08-28T07:29:58.422Z,19.56
2022-08-28T07:32:27.343Z,19.88
2022-08-28T07:34:57.092Z,20.37
2022-08-28T07:37:27.097Z,20.84
2022-08-28T07:39:57.074Z,20.46
2022-08-28T07:42:43.025Z,21.15
2022-08-28T07:45:12.354Z,20.97
2022-08-28T07:47:41.381Z,21.08
2022-08-28T07:50:10.330Z,20.64
2022-08-28T07:52:39.054Z,20.82
2022-08-28T07:55:10.043Z,20.78
2022-08-28T07:57:38.771Z,20.97
2022-08-28T08:00:08.552Z,21.57
2022-08-28T08:02:40.186Z,21.63
2022-08-28T08:05:10.780Z,21.24
2022-08-28T08:07:43.747Z,22.04
2022-08-28T08:10:19.938Z,22.97
2022-08-28T08:12:49.298Z,23.30
2022-08-28T08:15:21.407Z,23.39
2022-08-28T08:17:51.817Z,23.51
2022-08-28T08:20:20.681Z,23.26
2022-08-28T08:22:49.549Z,22.75
2022-08-28T08:25:19.477Z,22.62
2022-08-28T08:27:48.100Z,23.27
2022-08-28T08:30:16.796Z,24.06
2022-08-28T08:32:45.339Z,23.26
2022-08-28T08:35:13.895Z,22.89
2022-08-28T08:37:42.435Z,21.91
2022-08-28T08:40:15.692Z,21.75
2022-08-28T08:42:51.106Z,22.79
2022-08-28T08:45:26.438Z,24.02
2022-08-28T08:47:57.086Z,25.34
2022-08-28T08:50:29.369Z,25.05
2022-08-28T08:53:17.159Z,26.80
2022-08-28T08:55:50.028Z,26.44
2022-08-28T08:58:25.597Z,26.58
2022-08-28T09:01:04.679Z,28.01
2022-08-28T09:03:50.487Z,28.16
2022-08-28T09:06:28.023Z,28.21
2022-08-28T09:09:00.949Z,28.68
2022-08-28T09:11:42.142Z,27.51
2022-08-28T09:14:17.089Z,26.72
2022-08-28T09:16:49.356Z,26.17
2022-08-28T09:19:22.699Z,26.83
2022-08-28T09:21:52.412Z,26.86
2022-08-28T09:24:25.365Z,27.87
2022-08-28T09:26:57.349Z,26.31
2022-08-28T09:29:32.178Z,25.52
2022-08-28T09:32:18.869Z,24.82
2022-08-28T09:35:02.694Z,24.18
2022-08-28T09:37:32.656Z,23.95
2022-08-28T09:40:23.601Z,25.67
2022-08-28T09:43:24.420Z,26.85
2022-08-28T09:45:58.105Z,25.61
2022-08-28T09:48:34.013Z,26.13
2022-08-28T09:51:04.920Z,27.59
2022-08-28T09:53:35.909Z,27.47
2022-08-28T09:56:12.056Z,28.53
2022-08-28T09:58:44.781Z,28.81
2022-08-28T10:01:31.357Z,29.36
2022-08-28T10:30:04.261Z,31.88
2022-08-28T10:32:55.432Z,31.71
2022-08-28T10:35:26.864Z,30.33
2022-08-28T10:38:06.045Z,30.58
2022-08-28T10:40:37.927Z,31.70
2022-08-28T10:43:11.459Z,30.48
2022-08-28T10:45:42.424Z,30.64
2022-08-28T10:48:19.504Z,31.00
2022-08-28T10:50:51.967Z,31.53
2022-08-28T10:53:26.313Z,32.09
2022-08-28T10:55:58.367Z,32.75
2022-08-28T10:58:28.587Z,33.04
2022-08-28T11:01:04.497Z,33.08
2022-08-28T11:03:41.457Z,32.38
2022-08-28T11:06:16.900Z,32.49
2022-08-28T11:08:53.089Z,32.35
2022-08-28T11:11:42.214Z,32.72
2022-08-28T11:14:11.959Z,33.23
2022-08-28T11:16:47.288Z,31.08
2022-08-28T11:19:43.943Z,31.67
2022-08-28T11:22:18.791Z,33.20
2022-08-28T11:24:59.164Z,34.02
2022-08-28T11:27:33.747Z,33.52
2022-08-28T11:30:19.453Z,32.67
2022-08-28T11:33:02.013Z,32.86
2022-08-28T11:35:43.869Z,32.59
2022-08-28T11:38:16.422Z,32.38
2022-08-28T11:40:58.028Z,32.09
2022-08-28T11:43:36.565Z,32.45
2022-08-28T11:46:32.753Z,32.29
2022-08-28T11:49:05.150Z,32.59
2022-08-28T11:52:06.912Z,32.70
2022-08-28T11:54:52.198Z,32.55
2022-08-28T11:57:26.487Z,32.20
2022-08-28T12:00:03.031Z,32.64
2022-08-28T12:02:55.597Z,32.55
2022-08-28T12:05:57.386Z,32.50
2022-08-28T12:09:11.780Z,32.30
2022-08-28T12:12:04.061Z,32.50
2022-08-28T12:15:00.613Z,32.63
2022-08-28T12:17:50.780Z,32.43
2022-08-28T12:20:29.266Z,33.16
2022-08-28T12:23:01.421Z,33.09
2022-08-28T12:25:36.238Z,33.13
2022-08-28T12:28:16.716Z,33.09
2022-08-28T12:30:54.038Z,33.11
2022-08-28T12:33:31.905Z,32.45
2022-08-28T12:36:03.202Z,33.03
2022-08-28T12:38:35.450Z,32.18
2022-08-28T12:41:04.176Z,31.97
2022-08-28T12:43:41.688Z,31.88
2022-08-28T12:46:20.045Z,31.96
2022-08-28T12:48:51.631Z,31.95
2022-08-28T12:51:25.617Z,32.65
2022-08-28T12:53:57.709Z,31.87
2022-08-28T12:56:29.954Z,31.56
2022-08-28T12:59:35.712Z,31.81
2022-08-28T13:02:06.079Z,31.06
2022-08-28T13:04:38.376Z,31.91
2022-08-28T13:07:12.045Z,32.15
2022-08-28T13:09:47.865Z,31.54
2022-08-28T13:12:22.173Z,32.03
2022-08-28T13:15:02.206Z,31.64
2022-08-28T13:17:48.979Z,31.80
2022-08-28T13:20:28.813Z,31.36
2022-08-28T13:22:58.114Z,31.44
2022-08-28T13:25:29.851Z,31.50
2022-08-28T13:28:00.546Z,32.20
2022-08-28T13:30:33.650Z,31.29
2022-08-28T13:33:05.729Z,31.53
2022-08-28T13:35:41.179Z,31.19
2022-08-28T13:38:12.416Z,31.94
2022-08-28T13:41:01.835Z,31.55
2022-08-28T13:43:43.989Z,30.99
2022-08-28T13:46:14.229Z,31.39
2022-08-28T13:48:42.746Z,31.55
2022-08-28T13:51:21.182Z,31.82
2022-08-28T13:53:50.732Z,31.28
2022-08-28T13:56:21.947Z,30.24
2022-08-28T13:58:57.576Z,29.75
2022-08-28T14:01:48.138Z,28.53
2022-08-28T14:04:15.845Z,26.91
2022-08-28T14:06:44.926Z,26.82
2022-08-28T14:09:15.337Z,26.77
2022-08-28T14:11:47.818Z,26.26
2022-08-28T14:14:17.058Z,26.22
2022-08-28T14:16:47.328Z,26.33
2022-08-28T14:19:18.772Z,25.97
2022-08-28T14:21:47.332Z,25.58
2022-08-28T14:24:17.126Z,25.42
2022-08-28T14:26:48.379Z,25.37
2022-08-28T14:29:18.608Z,25.60
2022-08-28T14:32:04.119Z,25.26
2022-08-28T14:34:41.596Z,25.47
2022-08-28T14:37:10.452Z,25.55
2022-08-28T14:39:40.174Z,25.37
2022-08-28T14:42:23.176Z,24.51
2022-08-28T14:44:51.696Z,24.52
2022-08-28T14:47:21.892Z,24.38
2022-08-28T14:49:50.447Z,24.48
2022-08-28T14:52:20.118Z,24.26
2022-08-28T14:54:48.686Z,24.42
2022-08-28T14:57:17.545Z,24.21
2022-08-28T14:59:46.248Z,24.05
2022-08-28T15:02:14.864Z,24.01
2022-08-28T15:04:44.897Z,23.84
2022-08-28T15:07:13.760Z,23.77
2022-08-28T15:09:45.412Z,23.80
2022-08-28T15:12:13.966Z,23.43
2022-08-28T15:14:54.634Z,23.58
2022-08-28T15:17:33.741Z,23.37
2022-08-28T15:20:05.965Z,23.39
2022-08-28T15:22:34.563Z,23.39
2022-08-28T15:25:03.249Z,23.29
2022-08-28T15:27:31.828Z,23.28
2022-08-28T15:30:00.312Z,23.11
2022-08-28T15:32:28.809Z,22.99
2022-08-28T15:34:58.459Z,23.08
2022-08-28T15:37:29.402Z,22.94
2022-08-28T15:40:17.624Z,22.80
2022-08-28T15:42:46.169Z,22.84
2022-08-28T15:45:14.760Z,22.81
2022-08-28T15:47:43.361Z,22.68
2022-08-28T15:50:11.961Z,22.72
2022-08-28T15:52:48.398Z,22.75
2022-08-28T15:55:17.635Z,22.75
2022-08-28T15:57:47.111Z,22.70
2022-08-28T16:00:17.261Z,22.52
2022-08-28T16:02:46.002Z,22.46
2022-08-28T16:05:15.829Z,22.34
2022-08-28T16:07:46.535Z,22.36
2022-08-28T16:10:15.093Z,22.33
2022-08-28T16:12:43.598Z,22.23
2022-08-28T16:15:20.733Z,22.14
2022-08-28T16:17:49.879Z,22.13
2022-08-28T16:20:18.567Z,22.14
2022-08-28T16:22:48.470Z,22.10
2022-08-28T16:25:17.211Z,22.06
2022-08-28T16:27:45.810Z,22.01
2022-08-28T16:30:15.967Z,22.02
2022-08-28T16:32:46.854Z,22.05
2022-08-28T16:35:16.739Z,21.97
2022-08-28T16:37:45.839Z,21.97
2022-08-28T16:40:19.431Z,21.99
2022-08-28T16:42:51.719Z,21.99
2022-08-28T16:45:21.096Z,21.95
2022-08-28T16:47:50.108Z,21.74
2022-08-28T16:50:19.517Z,21.62
2022-08-28T16:52:48.426Z,21.65
2022-08-28T16:55:25.559Z,21.65
2022-08-28T16:57:57.808Z,21.58
2022-08-28T17:00:27.200Z,21.56
2022-08-28T17:02:56.048Z,21.49
2022-08-28T17:05:25.765Z,21.44
2022-08-28T17:07:54.818Z,21.36
2022-08-28T17:10:26.166Z,21.30
2022-08-28T17:12:54.731Z,21.28
2022-08-28T17:15:23.296Z,21.28
2022-08-28T17:17:52.356Z,21.11
2022-08-28T17:20:37.474Z,21.03
2022-08-28T17:23:06.884Z,20.98
2022-08-28T17:25:37.328Z,20.90
2022-08-28T17:28:05.903Z,20.83
2022-08-28T17:30:34.679Z,20.76
2022-08-28T17:33:03.431Z,20.66
2022-08-28T17:35:32.237Z,20.60
2022-08-28T17:38:10.923Z,20.58
2022-08-28T17:40:43.239Z,20.51
2022-08-28T17:43:12.561Z,20.40
2022-08-28T17:45:41.170Z,20.39
2022-08-28T17:48:09.782Z,20.34
2022-08-28T17:50:38.402Z,20.29
2022-08-28T17:53:06.980Z,20.14
2022-08-28T17:55:36.292Z,20.04
2022-08-28T17:58:06.391Z,19.98
2022-08-28T18:00:35.002Z,19.82
2022-08-28T18:03:03.817Z,19.80
2022-08-28T18:05:32.650Z,19.67
2022-08-28T18:08:01.225Z,19.70
2022-08-28T18:10:33.437Z,19.60
2022-08-28T18:13:02.452Z,19.53
2022-08-28T18:15:33.002Z,19.49
2022-08-28T18:18:08.481Z,19.51
2022-08-28T18:20:37.266Z,19.42
2022-08-28T18:23:05.955Z,19.29
2022-08-28T18:25:51.477Z,19.19
2022-08-28T18:28:22.447Z,19.11
2022-08-28T18:30:59.579Z,19.04
2022-08-28T18:33:29.241Z,19.04
2022-08-28T18:35:58.043Z,19.00
2022-08-28T18:38:28.277Z,18.98
2022-08-28T18:40:57.008Z,18.94
2022-08-28T18:43:25.774Z,18.94
2022-08-28T18:45:55.650Z,18.85
2022-08-28T18:48:24.598Z,18.79
2022-08-28T18:50:53.449Z,18.78
2022-08-28T18:53:24.737Z,18.70
2022-08-28T18:55:55.040Z,18.72
2022-08-28T18:58:27.542Z,18.59
2022-08-28T19:00:57.598Z,18.57
2022-08-28T19:03:26.277Z,18.53
2022-08-28T19:05:56.117Z,18.45
2022-08-28T19:08:25.297Z,18.35
2022-08-28T19:10:54.646Z,18.40
2022-08-28T19:13:23.636Z,18.32
2022-08-28T19:15:53.497Z,18.22
2022-08-28T19:18:23.842Z,18.16
2022-08-28T19:20:52.673Z,18.17
2022-08-28T19:23:21.204Z,18.20
2022-08-28T19:25:50.123Z,18.13
2022-08-28T19:28:18.881Z,18.06
2022-08-28T19:30:48.353Z,18.15
2022-08-28T19:33:17.580Z,18.16
2022-08-28T19:35:50.202Z,18.16
2022-08-28T19:38:18.958Z,18.12
2022-08-28T19:40:48.207Z,18.04
2022-08-28T19:43:17.303Z,18.01
2022-08-28T19:45:51.937Z,18.02
2022-08-28T19:48:24.715Z,17.98
2022-08-28T19:51:04.070Z,17.84
2022-08-28T19:53:36.163Z,17.67
2022-08-28T19:56:06.139Z,17.65
2022-08-28T19:58:35.068Z,17.56
2022-08-28T20:01:05.505Z,17.53
2022-08-28T20:03:36.347Z,17.52
2022-08-28T20:06:06.838Z,17.44
2022-08-28T20:08:38.385Z,17.38
2022-08-28T20:11:11.417Z,17.30
2022-08-28T20:13:41.763Z,17.18
2022-08-28T20:16:15.813Z,17.19
2022-08-28T20:18:45.734Z,17.15
2022-08-28T20:21:18.682Z,17.05
2022-08-28T20:23:55.201Z,16.98
2022-08-28T20:26:28.351Z,16.86
2022-08-28T20:28:57.610Z,16.79
2022-08-28T20:31:29.206Z,16.72
2022-08-28T20:33:57.890Z,16.68
2022-08-28T20:36:28.083Z,16.51
2022-08-28T20:38:56.911Z,16.60
2022-08-28T20:41:25.872Z,16.49
2022-08-28T20:43:54.500Z,16.44
2022-08-28T20:46:23.193Z,16.33
2022-08-28T20:48:51.844Z,16.28
2022-08-28T20:51:40.488Z,16.22
2022-08-28T20:54:10.425Z,16.24
2022-08-28T20:56:39.535Z,16.21
2022-08-28T20:59:09.110Z,16.17
2022-08-28T21:01:37.758Z,16.04
2022-08-28T21:04:06.968Z,15.88
2022-08-28T21:06:35.546Z,15.72
2022-08-28T21:09:04.192Z,15.61
2022-08-28T21:11:34.044Z,15.60
2022-08-28T21:14:02.543Z,15.56
2022-08-28T21:16:31.180Z,15.59
2022-08-28T21:19:15.185Z,15.62
2022-08-28T21:21:45.243Z,15.53
2022-08-28T21:24:16.030Z,15.47
2022-08-28T21:26:51.524Z,15.41
2022-08-28T21:29:21.040Z,15.52
2022-08-28T21:31:52.225Z,15.53
2022-08-28T21:34:21.875Z,15.44
2022-08-28T21:36:51.565Z,15.31
2022-08-28T21:39:21.359Z,15.20
2022-08-28T21:41:51.478Z,15.18
2022-08-28T21:44:19.984Z,15.20
2022-08-28T21:46:48.483Z,15.19
2022-08-28T21:49:16.990Z,15.08
2022-08-28T21:51:45.648Z,14.97
2022-08-28T21:54:14.137Z,14.89
2022-08-28T21:56:43.180Z,14.87
2022-08-28T21:59:13.424Z,14.79
2022-08-28T22:01:42.248Z,14.71
2022-08-28T22:04:11.393Z,14.59
2022-08-28T22:06:40.722Z,14.57
2022-08-28T22:09:10.148Z,14.52
2022-08-28T22:11:38.732Z,14.49
2022-08-28T22:14:07.265Z,14.49
2022-08-28T22:16:37.182Z,14.55
2022-08-28T22:19:06.355Z,14.52
2022-08-28T22:21:52.465Z,14.51
2022-08-28T22:24:21.001Z,14.49
2022-08-28T22:26:50.498Z,14.65
2022-08-28T22:29:25.917Z,14.51
2022-08-28T22:31:55.872Z,14.49
2022-08-28T22:34:24.709Z,14.42
2022-08-28T22:36:53.262Z,14.37
2022-08-28T22:39:21.789Z,14.30
2022-08-28T22:41:50.980Z,14.36
2022-08-28T22:44:19.590Z,14.32
2022-08-28T22:46:48.105Z,14.24
2022-08-28T22:49:17.971Z,14.15
2022-08-28T22:51:46.513Z,14.17
2022-08-28T22:54:15.015Z,14.14
2022-08-28T22:56:43.780Z,14.17
2022-08-28T22:59:12.313Z,14.24
2022-08-28T23:01:42.332Z,14.19
2022-08-28T23:04:11.503Z,14.09
2022-08-28T23:06:41.825Z,14.07
2022-08-28T23:09:10.741Z,14.01
2022-08-28T23:11:39.364Z,14.00
2022-08-28T23:14:07.891Z,13.91
2022-08-28T23:16:36.451Z,13.86
2022-08-28T23:19:09.057Z,13.77
2022-08-28T23:21:40.194Z,13.72
2022-08-28T23:24:13.626Z,13.67
2022-08-28T23:26:42.434Z,13.67
2022-08-28T23:29:11.679Z,13.68
2022-08-28T23:31:40.770Z,13.60
2022-08-28T23:34:09.524Z,13.52
2022-08-28T23:36:39.642Z,13.57
2022-08-28T23:39:13.443Z,13.64
2022-08-28T23:41:42.135Z,13.65
2022-08-28T23:44:10.990Z,13.60
2022-08-28T23:46:41.076Z,13.57
2022-08-28T23:49:10.692Z,13.44
2022-08-28T23:51:39.309Z,13.36
2022-08-28T23:54:09.460Z,13.29
2022-08-28T23:56:39.408Z,13.28
2022-08-28T23:59:08.291Z,13.28
